sensor_id;sensor_type;location;lat;lon;timestamp;P1;durP1;ratioP1;P2;durP2;ratioP2
47844;SDS011;33605;48.822;8.796;2024-01-15T00:00:16;22.50;;;9.50;;
47844;SDS011;33605;48.822;8.796;2024-01-15T00:02:42;27.80;;;9.80;;
47844;SDS011;33605;48.822;8.796;2024-01-15T00:05:08;22.67;;;10.20;;
47844;SDS011;33605;48.822;8.796;2024-01-15T00:07:34;20.67;;;10.00;;
47844;SDS011;33605;48.822;8.796;2024-01-15T00:10:00;28.17;;;10.17;;
47844;SDS011;33605;48.822;8.796;2024-01-15T00:12:26;21.17;;;10.03;;
47844;SDS011;33605;48.822;8.796;2024-01-15T00:14:52;23.80;;;10.10;;
47844;SDS011;33605;48.822;8.796;2024-01-15T00:17:18;20.23;;;9.10;;
47844;SDS011;33605;48.822;8.796;2024-01-15T00:19:46;17.30;;;9.43;;
47844;SDS011;33605;48.822;8.796;2024-01-15T00:22:12;28.00;;;9.63;;
47844;SDS011;33605;48.822;8.796;2024-01-15T00:24:38;22.67;;;9.67;;
47844;SDS011;33605;48.822;8.796;2024-01-15T00:27:03;21.13;;;9.07;;
47844;SDS011;33605;48.822;8.796;2024-01-15T00:29:29;22.97;;;10.60;;
47844;SDS011;33605;48.822;8.796;2024-01-15T00:31:55;21.90;;;9.67;;
47844;SDS011;33605;48.822;8.796;2024-01-15T00:34:26;26.10;;;10.23;;
47844;SDS011;33605;48.822;8.796;2024-01-15T00:36:52;21.00;;;8.90;;
47844;SDS011;33605;48.822;8.796;2024-01-15T00:39:18;25.53;;;12.10;;
47844;SDS011;33605;48.822;8.796;2024-01-15T00:41:43;23.50;;;9.07;;
47844;SDS011;33605;48.822;8.796;2024-01-15T00:44:12;22.83;;;10.00;;
47844;SDS011;33605;48.822;8.796;2024-01-15T00:46:44;25.10;;;10.50;;
47844;SDS011;33605;48.822;8.796;2024-01-15T00:49:10;23.60;;;10.00;;
47844;SDS011;33605;48.822;8.796;2024-01-15T00:51:37;21.27;;;9.50;;
47844;SDS011;33605;48.822;8.796;2024-01-15T00:54:02;21.60;;;9.67;;
47844;SDS011;33605;48.822;8.796;2024-01-15T00:56:28;19.10;;;9.53;;
47844;SDS011;33605;48.822;8.796;2024-01-15T00:58:53;22.27;;;10.77;;
47844;SDS011;33605;48.822;8.796;2024-01-15T01:01:19;24.50;;;9.93;;
47844;SDS011;33605;48.822;8.796;2024-01-15T01:03:44;25.63;;;12.00;;
47844;SDS011;33605;48.822;8.796;2024-01-15T01:06:10;25.60;;;10.40;;
47844;SDS011;33605;48.822;8.796;2024-01-15T01:08:35;21.50;;;9.90;;
47844;SDS011;33605;48.822;8.796;2024-01-15T01:11:01;19.07;;;9.00;;
47844;SDS011;33605;48.822;8.796;2024-01-15T01:13:27;19.73;;;9.77;;
47844;SDS011;33605;48.822;8.796;2024-01-15T01:15:53;21.33;;;10.00;;
47844;SDS011;33605;48.822;8.796;2024-01-15T01:18:18;22.13;;;9.90;;
47844;SDS011;33605;48.822;8.796;2024-01-15T01:20:44;25.00;;;9.90;;
47844;SDS011;33605;48.822;8.796;2024-01-15T01:23:09;23.10;;;9.00;;
47844;SDS011;33605;48.822;8.796;2024-01-15T01:25:35;28.43;;;10.13;;
47844;SDS011;33605;48.822;8.796;2024-01-15T01:28:00;27.17;;;10.20;;
47844;SDS011;33605;48.822;8.796;2024-01-15T01:30:26;22.40;;;9.63;;
47844;SDS011;33605;48.822;8.796;2024-01-15T01:32:52;21.40;;;9.20;;
47844;SDS011;33605;48.822;8.796;2024-01-15T01:35:20;23.17;;;10.90;;
47844;SDS011;33605;48.822;8.796;2024-01-15T01:37:46;22.57;;;9.77;;
47844;SDS011;33605;48.822;8.796;2024-01-15T01:40:11;17.53;;;9.73;;
47844;SDS011;33605;48.822;8.796;2024-01-15T01:42:37;19.33;;;9.30;;
47844;SDS011;33605;48.822;8.796;2024-01-15T01:45:03;17.60;;;9.40;;
47844;SDS011;33605;48.822;8.796;2024-01-15T01:47:29;25.87;;;9.30;;
47844;SDS011;33605;48.822;8.796;2024-01-15T01:49:54;23.07;;;8.30;;
47844;SDS011;33605;48.822;8.796;2024-01-15T01:52:21;20.07;;;9.17;;
47844;SDS011;33605;48.822;8.796;2024-01-15T01:54:47;13.07;;;8.07;;
47844;SDS011;33605;48.822;8.796;2024-01-15T01:57:13;17.30;;;7.97;;
47844;SDS011;33605;48.822;8.796;2024-01-15T01:59:40;16.90;;;8.43;;
47844;SDS011;33605;48.822;8.796;2024-01-15T02:02:06;18.37;;;8.90;;
47844;SDS011;33605;48.822;8.796;2024-01-15T02:04:31;22.90;;;10.30;;
47844;SDS011;33605;48.822;8.796;2024-01-15T02:06:59;21.43;;;8.40;;
47844;SDS011;33605;48.822;8.796;2024-01-15T02:09:25;19.47;;;8.77;;
47844;SDS011;33605;48.822;8.796;2024-01-15T02:11:50;23.37;;;9.37;;
47844;SDS011;33605;48.822;8.796;2024-01-15T02:14:16;15.90;;;8.17;;
47844;SDS011;33605;48.822;8.796;2024-01-15T02:16:42;19.43;;;8.63;;
47844;SDS011;33605;48.822;8.796;2024-01-15T02:19:14;21.30;;;8.53;;
47844;SDS011;33605;48.822;8.796;2024-01-15T02:21:43;16.90;;;8.00;;
47844;SDS011;33605;48.822;8.796;2024-01-15T02:24:09;22.93;;;9.07;;
47844;SDS011;33605;48.822;8.796;2024-01-15T02:26:34;18.63;;;8.27;;
47844;SDS011;33605;48.822;8.796;2024-01-15T02:29:02;21.40;;;9.10;;
47844;SDS011;33605;48.822;8.796;2024-01-15T02:31:28;21.87;;;9.40;;
47844;SDS011;33605;48.822;8.796;2024-01-15T02:33:54;19.10;;;8.60;;
47844;SDS011;33605;48.822;8.796;2024-01-15T02:36:19;18.30;;;8.90;;
47844;SDS011;33605;48.822;8.796;2024-01-15T02:38:45;15.10;;;8.30;;
47844;SDS011;33605;48.822;8.796;2024-01-15T02:41:13;18.07;;;7.83;;
47844;SDS011;33605;48.822;8.796;2024-01-15T02:43:39;20.10;;;8.67;;
47844;SDS011;33605;48.822;8.796;2024-01-15T02:46:05;16.27;;;7.67;;
47844;SDS011;33605;48.822;8.796;2024-01-15T02:48:31;17.70;;;8.40;;
47844;SDS011;33605;48.822;8.796;2024-01-15T02:50:58;13.60;;;7.20;;
47844;SDS011;33605;48.822;8.796;2024-01-15T02:53:24;19.23;;;8.50;;
47844;SDS011;33605;48.822;8.796;2024-01-15T02:55:49;20.67;;;8.53;;
47844;SDS011;33605;48.822;8.796;2024-01-15T02:58:15;18.63;;;8.60;;
47844;SDS011;33605;48.822;8.796;2024-01-15T03:00:41;18.83;;;9.67;;
47844;SDS011;33605;48.822;8.796;2024-01-15T03:03:07;16.33;;;7.87;;
47844;SDS011;33605;48.822;8.796;2024-01-15T03:05:33;20.47;;;8.93;;
47844;SDS011;33605;48.822;8.796;2024-01-15T03:07:58;16.70;;;7.60;;
47844;SDS011;33605;48.822;8.796;2024-01-15T03:10:24;18.83;;;7.50;;
47844;SDS011;33605;48.822;8.796;2024-01-15T03:12:52;14.70;;;6.97;;
47844;SDS011;33605;48.822;8.796;2024-01-15T03:15:18;15.20;;;6.80;;
47844;SDS011;33605;48.822;8.796;2024-01-15T03:17:43;16.27;;;6.97;;
47844;SDS011;33605;48.822;8.796;2024-01-15T03:20:10;15.77;;;7.73;;
47844;SDS011;33605;48.822;8.796;2024-01-15T03:22:36;19.00;;;7.23;;
47844;SDS011;33605;48.822;8.796;2024-01-15T03:25:02;15.90;;;7.80;;
47844;SDS011;33605;48.822;8.796;2024-01-15T03:27:29;13.47;;;7.47;;
47844;SDS011;33605;48.822;8.796;2024-01-15T03:29:54;18.70;;;7.50;;
47844;SDS011;33605;48.822;8.796;2024-01-15T03:32:20;17.70;;;7.30;;
47844;SDS011;33605;48.822;8.796;2024-01-15T03:34:46;16.00;;;6.60;;
47844;SDS011;33605;48.822;8.796;2024-01-15T03:37:12;12.00;;;6.77;;
47844;SDS011;33605;48.822;8.796;2024-01-15T03:39:38;10.37;;;5.67;;
47844;SDS011;33605;48.822;8.796;2024-01-15T03:42:04;14.20;;;6.60;;
47844;SDS011;33605;48.822;8.796;2024-01-15T03:44:29;12.50;;;6.20;;
47844;SDS011;33605;48.822;8.796;2024-01-15T03:46:55;15.37;;;7.27;;
47844;SDS011;33605;48.822;8.796;2024-01-15T03:49:23;12.40;;;5.87;;
47844;SDS011;33605;48.822;8.796;2024-01-15T03:51:48;16.00;;;6.67;;
47844;SDS011;33605;48.822;8.796;2024-01-15T03:54:14;12.00;;;5.60;;
47844;SDS011;33605;48.822;8.796;2024-01-15T03:56:39;12.77;;;6.70;;
47844;SDS011;33605;48.822;8.796;2024-01-15T03:59:05;11.07;;;6.10;;
47844;SDS011;33605;48.822;8.796;2024-01-15T04:01:30;14.27;;;6.90;;
47844;SDS011;33605;48.822;8.796;2024-01-15T04:03:56;10.03;;;6.10;;
47844;SDS011;33605;48.822;8.796;2024-01-15T04:06:22;14.63;;;6.67;;
47844;SDS011;33605;48.822;8.796;2024-01-15T04:08:47;12.17;;;7.20;;
47844;SDS011;33605;48.822;8.796;2024-01-15T04:11:15;14.53;;;7.40;;
47844;SDS011;33605;48.822;8.796;2024-01-15T04:13:43;11.70;;;5.57;;
47844;SDS011;33605;48.822;8.796;2024-01-15T04:16:09;11.30;;;6.47;;
47844;SDS011;33605;48.822;8.796;2024-01-15T04:18:35;13.93;;;6.30;;
47844;SDS011;33605;48.822;8.796;2024-01-15T04:21:00;9.90;;;5.90;;
47844;SDS011;33605;48.822;8.796;2024-01-15T04:23:28;11.33;;;6.00;;
47844;SDS011;33605;48.822;8.796;2024-01-15T04:25:54;9.70;;;5.77;;
47844;SDS011;33605;48.822;8.796;2024-01-15T04:28:19;16.07;;;6.17;;
47844;SDS011;33605;48.822;8.796;2024-01-15T04:30:45;12.90;;;5.90;;
47844;SDS011;33605;48.822;8.796;2024-01-15T04:33:10;13.57;;;6.87;;
47844;SDS011;33605;48.822;8.796;2024-01-15T04:35:36;11.97;;;5.80;;
47844;SDS011;33605;48.822;8.796;2024-01-15T04:38:02;10.00;;;4.90;;
47844;SDS011;33605;48.822;8.796;2024-01-15T04:40:28;10.40;;;6.17;;
47844;SDS011;33605;48.822;8.796;2024-01-15T04:42:54;9.37;;;6.40;;
47844;SDS011;33605;48.822;8.796;2024-01-15T04:45:20;8.80;;;5.30;;
47844;SDS011;33605;48.822;8.796;2024-01-15T04:47:47;8.33;;;4.50;;
47844;SDS011;33605;48.822;8.796;2024-01-15T04:50:16;7.97;;;5.30;;
47844;SDS011;33605;48.822;8.796;2024-01-15T04:52:42;11.33;;;5.70;;
47844;SDS011;33605;48.822;8.796;2024-01-15T04:55:08;7.63;;;4.63;;
47844;SDS011;33605;48.822;8.796;2024-01-15T04:57:36;11.03;;;5.23;;
47844;SDS011;33605;48.822;8.796;2024-01-15T05:00:02;12.83;;;5.53;;
47844;SDS011;33605;48.822;8.796;2024-01-15T05:02:28;8.70;;;4.83;;
47844;SDS011;33605;48.822;8.796;2024-01-15T05:04:53;8.53;;;4.93;;
47844;SDS011;33605;48.822;8.796;2024-01-15T05:07:19;11.03;;;5.77;;
47844;SDS011;33605;48.822;8.796;2024-01-15T05:09:44;8.33;;;5.53;;
47844;SDS011;33605;48.822;8.796;2024-01-15T05:12:10;6.47;;;4.47;;
47844;SDS011;33605;48.822;8.796;2024-01-15T05:14:36;6.80;;;4.40;;
47844;SDS011;33605;48.822;8.796;2024-01-15T05:17:02;10.83;;;5.17;;
47844;SDS011;33605;48.822;8.796;2024-01-15T05:19:28;7.33;;;4.83;;
47844;SDS011;33605;48.822;8.796;2024-01-15T05:21:53;6.70;;;4.40;;
47844;SDS011;33605;48.822;8.796;2024-01-15T05:24:19;7.13;;;4.63;;
47844;SDS011;33605;48.822;8.796;2024-01-15T05:26:44;7.17;;;4.13;;
47844;SDS011;33605;48.822;8.796;2024-01-15T05:29:10;7.23;;;4.97;;
47844;SDS011;33605;48.822;8.796;2024-01-15T05:31:36;10.60;;;4.80;;
47844;SDS011;33605;48.822;8.796;2024-01-15T05:34:01;7.70;;;3.93;;
47844;SDS011;33605;48.822;8.796;2024-01-15T05:36:27;8.37;;;4.43;;
47844;SDS011;33605;48.822;8.796;2024-01-15T05:38:52;6.47;;;4.03;;
47844;SDS011;33605;48.822;8.796;2024-01-15T05:41:18;9.00;;;4.63;;
47844;SDS011;33605;48.822;8.796;2024-01-15T05:43:43;9.43;;;5.23;;
47844;SDS011;33605;48.822;8.796;2024-01-15T05:46:12;8.37;;;4.43;;
47844;SDS011;33605;48.822;8.796;2024-01-15T05:48:38;31.50;;;17.73;;
47844;SDS011;33605;48.822;8.796;2024-01-15T05:51:04;12.90;;;8.60;;
47844;SDS011;33605;48.822;8.796;2024-01-15T05:53:30;11.03;;;5.63;;
47844;SDS011;33605;48.822;8.796;2024-01-15T05:55:58;8.80;;;4.37;;
47844;SDS011;33605;48.822;8.796;2024-01-15T05:58:26;7.90;;;4.83;;
47844;SDS011;33605;48.822;8.796;2024-01-15T06:00:52;8.43;;;5.03;;
47844;SDS011;33605;48.822;8.796;2024-01-15T06:03:17;6.77;;;4.60;;
47844;SDS011;33605;48.822;8.796;2024-01-15T06:05:43;7.97;;;4.47;;
47844;SDS011;33605;48.822;8.796;2024-01-15T06:08:08;7.10;;;3.90;;
47844;SDS011;33605;48.822;8.796;2024-01-15T06:10:34;8.93;;;4.40;;
47844;SDS011;33605;48.822;8.796;2024-01-15T06:13:00;5.53;;;4.27;;
47844;SDS011;33605;48.822;8.796;2024-01-15T06:15:26;5.17;;;3.77;;
47844;SDS011;33605;48.822;8.796;2024-01-15T06:17:52;6.57;;;4.03;;
47844;SDS011;33605;48.822;8.796;2024-01-15T06:20:18;5.50;;;3.70;;
47844;SDS011;33605;48.822;8.796;2024-01-15T06:22:43;4.70;;;3.40;;
47844;SDS011;33605;48.822;8.796;2024-01-15T06:25:09;5.70;;;3.57;;
47844;SDS011;33605;48.822;8.796;2024-01-15T06:27:35;4.27;;;3.50;;
47844;SDS011;33605;48.822;8.796;2024-01-15T06:30:00;3.43;;;3.10;;
47844;SDS011;33605;48.822;8.796;2024-01-15T06:32:26;6.43;;;3.33;;
47844;SDS011;33605;48.822;8.796;2024-01-15T06:34:52;5.27;;;3.20;;
47844;SDS011;33605;48.822;8.796;2024-01-15T06:37:17;5.87;;;3.40;;
47844;SDS011;33605;48.822;8.796;2024-01-15T06:39:45;4.67;;;3.03;;
47844;SDS011;33605;48.822;8.796;2024-01-15T06:42:10;7.30;;;4.90;;
47844;SDS011;33605;48.822;8.796;2024-01-15T06:44:36;4.67;;;3.30;;
47844;SDS011;33605;48.822;8.796;2024-01-15T06:47:01;4.67;;;3.40;;
47844;SDS011;33605;48.822;8.796;2024-01-15T06:49:30;4.27;;;3.17;;
47844;SDS011;33605;48.822;8.796;2024-01-15T06:51:56;4.77;;;3.23;;
47844;SDS011;33605;48.822;8.796;2024-01-15T06:54:22;5.10;;;3.23;;
47844;SDS011;33605;48.822;8.796;2024-01-15T06:56:48;7.70;;;4.83;;
47844;SDS011;33605;48.822;8.796;2024-01-15T06:59:14;6.57;;;3.80;;
47844;SDS011;33605;48.822;8.796;2024-01-15T07:01:39;8.90;;;4.10;;
47844;SDS011;33605;48.822;8.796;2024-01-15T07:04:05;6.30;;;3.50;;
47844;SDS011;33605;48.822;8.796;2024-01-15T07:06:31;9.83;;;4.00;;
47844;SDS011;33605;48.822;8.796;2024-01-15T07:08:57;5.63;;;3.80;;
47844;SDS011;33605;48.822;8.796;2024-01-15T07:11:22;4.93;;;3.53;;
47844;SDS011;33605;48.822;8.796;2024-01-15T07:13:48;5.70;;;4.00;;
47844;SDS011;33605;48.822;8.796;2024-01-15T07:16:14;6.43;;;3.60;;
47844;SDS011;33605;48.822;8.796;2024-01-15T07:18:40;4.43;;;3.07;;
47844;SDS011;33605;48.822;8.796;2024-01-15T07:21:06;5.90;;;3.60;;
47844;SDS011;33605;48.822;8.796;2024-01-15T07:23:31;3.93;;;3.10;;
47844;SDS011;33605;48.822;8.796;2024-01-15T07:25:58;4.43;;;3.00;;
47844;SDS011;33605;48.822;8.796;2024-01-15T07:28:24;6.67;;;3.90;;
47844;SDS011;33605;48.822;8.796;2024-01-15T07:30:50;9.60;;;4.07;;
47844;SDS011;33605;48.822;8.796;2024-01-15T07:33:17;6.13;;;4.17;;
47844;SDS011;33605;48.822;8.796;2024-01-15T07:35:43;5.83;;;3.80;;
47844;SDS011;33605;48.822;8.796;2024-01-15T07:38:09;6.73;;;3.57;;
47844;SDS011;33605;48.822;8.796;2024-01-15T07:40:36;10.57;;;4.97;;
47844;SDS011;33605;48.822;8.796;2024-01-15T07:43:02;8.40;;;5.47;;
47844;SDS011;33605;48.822;8.796;2024-01-15T07:45:28;11.57;;;5.80;;
47844;SDS011;33605;48.822;8.796;2024-01-15T07:47:54;9.37;;;4.87;;
47844;SDS011;33605;48.822;8.796;2024-01-15T07:50:20;8.27;;;4.60;;
47844;SDS011;33605;48.822;8.796;2024-01-15T07:52:46;9.10;;;5.23;;
47844;SDS011;33605;48.822;8.796;2024-01-15T07:55:13;5.00;;;4.00;;
47844;SDS011;33605;48.822;8.796;2024-01-15T07:57:39;14.00;;;6.33;;
47844;SDS011;33605;48.822;8.796;2024-01-15T08:00:06;9.93;;;4.90;;
47844;SDS011;33605;48.822;8.796;2024-01-15T08:02:34;9.07;;;4.57;;
47844;SDS011;33605;48.822;8.796;2024-01-15T08:04:59;8.63;;;4.47;;
47844;SDS011;33605;48.822;8.796;2024-01-15T08:07:25;6.73;;;3.90;;
47844;SDS011;33605;48.822;8.796;2024-01-15T08:09:52;7.00;;;4.07;;
47844;SDS011;33605;48.822;8.796;2024-01-15T08:12:18;3.83;;;3.00;;
47844;SDS011;33605;48.822;8.796;2024-01-15T08:14:44;4.90;;;4.17;;
47844;SDS011;33605;48.822;8.796;2024-01-15T08:17:10;9.30;;;5.00;;
47844;SDS011;33605;48.822;8.796;2024-01-15T08:19:36;8.33;;;4.00;;
47844;SDS011;33605;48.822;8.796;2024-01-15T08:22:04;7.73;;;3.90;;
47844;SDS011;33605;48.822;8.796;2024-01-15T08:24:30;8.17;;;4.27;;
47844;SDS011;33605;48.822;8.796;2024-01-15T08:26:56;7.73;;;4.43;;
47844;SDS011;33605;48.822;8.796;2024-01-15T08:29:22;7.80;;;4.03;;
47844;SDS011;33605;48.822;8.796;2024-01-15T08:31:49;6.70;;;3.67;;
47844;SDS011;33605;48.822;8.796;2024-01-15T08:34:16;5.43;;;3.40;;
47844;SDS011;33605;48.822;8.796;2024-01-15T08:36:42;6.13;;;3.50;;
47844;SDS011;33605;48.822;8.796;2024-01-15T08:39:08;4.73;;;3.07;;
47844;SDS011;33605;48.822;8.796;2024-01-15T08:41:34;5.80;;;3.70;;
47844;SDS011;33605;48.822;8.796;2024-01-15T08:44:00;5.00;;;3.63;;
47844;SDS011;33605;48.822;8.796;2024-01-15T08:46:26;5.40;;;3.30;;
47844;SDS011;33605;48.822;8.796;2024-01-15T08:48:52;6.27;;;3.77;;
47844;SDS011;33605;48.822;8.796;2024-01-15T08:51:18;6.70;;;4.47;;
47844;SDS011;33605;48.822;8.796;2024-01-15T08:53:44;4.73;;;3.10;;
47844;SDS011;33605;48.822;8.796;2024-01-15T08:56:10;7.77;;;4.87;;
47844;SDS011;33605;48.822;8.796;2024-01-15T08:58:36;5.87;;;3.33;;
47844;SDS011;33605;48.822;8.796;2024-01-15T09:01:02;3.70;;;3.00;;
47844;SDS011;33605;48.822;8.796;2024-01-15T09:03:28;4.80;;;2.97;;
47844;SDS011;33605;48.822;8.796;2024-01-15T09:05:54;7.80;;;4.90;;
47844;SDS011;33605;48.822;8.796;2024-01-15T09:08:20;5.73;;;3.23;;
47844;SDS011;33605;48.822;8.796;2024-01-15T09:10:46;8.00;;;3.50;;
47844;SDS011;33605;48.822;8.796;2024-01-15T09:13:12;4.77;;;3.53;;
47844;SDS011;33605;48.822;8.796;2024-01-15T09:15:38;8.07;;;3.30;;
47844;SDS011;33605;48.822;8.796;2024-01-15T09:18:04;5.23;;;3.60;;
47844;SDS011;33605;48.822;8.796;2024-01-15T09:20:30;4.93;;;2.93;;
47844;SDS011;33605;48.822;8.796;2024-01-15T09:22:56;8.60;;;4.17;;
47844;SDS011;33605;48.822;8.796;2024-01-15T09:25:22;6.47;;;3.20;;
47844;SDS011;33605;48.822;8.796;2024-01-15T09:27:48;4.17;;;3.37;;
47844;SDS011;33605;48.822;8.796;2024-01-15T09:30:15;20.60;;;8.10;;
47844;SDS011;33605;48.822;8.796;2024-01-15T09:32:41;26.73;;;13.77;;
47844;SDS011;33605;48.822;8.796;2024-01-15T09:35:07;73.13;;;28.97;;
47844;SDS011;33605;48.822;8.796;2024-01-15T09:37:34;21.00;;;10.00;;
47844;SDS011;33605;48.822;8.796;2024-01-15T09:40:00;33.07;;;13.10;;
47844;SDS011;33605;48.822;8.796;2024-01-15T09:42:26;18.67;;;9.00;;
47844;SDS011;33605;48.822;8.796;2024-01-15T09:44:53;10.10;;;5.40;;
47844;SDS011;33605;48.822;8.796;2024-01-15T09:47:19;7.50;;;4.47;;
47844;SDS011;33605;48.822;8.796;2024-01-15T09:49:47;5.60;;;3.87;;
47844;SDS011;33605;48.822;8.796;2024-01-15T09:52:13;22.70;;;13.50;;
47844;SDS011;33605;48.822;8.796;2024-01-15T09:54:42;29.60;;;19.30;;
47844;SDS011;33605;48.822;8.796;2024-01-15T09:57:09;10.20;;;6.47;;
47844;SDS011;33605;48.822;8.796;2024-01-15T09:59:35;4.97;;;4.30;;
47844;SDS011;33605;48.822;8.796;2024-01-15T10:02:02;7.00;;;4.30;;
47844;SDS011;33605;48.822;8.796;2024-01-15T10:04:28;6.23;;;4.53;;
47844;SDS011;33605;48.822;8.796;2024-01-15T10:06:54;7.40;;;3.60;;
47844;SDS011;33605;48.822;8.796;2024-01-15T10:09:22;4.90;;;3.53;;
47844;SDS011;33605;48.822;8.796;2024-01-15T10:11:48;4.07;;;3.07;;
47844;SDS011;33605;48.822;8.796;2024-01-15T10:14:14;8.23;;;4.17;;
47844;SDS011;33605;48.822;8.796;2024-01-15T10:16:40;6.83;;;3.83;;
47844;SDS011;33605;48.822;8.796;2024-01-15T10:19:10;4.03;;;3.30;;
47844;SDS011;33605;48.822;8.796;2024-01-15T10:21:37;5.13;;;3.53;;
47844;SDS011;33605;48.822;8.796;2024-01-15T10:24:03;4.90;;;3.13;;
47844;SDS011;33605;48.822;8.796;2024-01-15T10:26:30;4.47;;;3.50;;
47844;SDS011;33605;48.822;8.796;2024-01-15T10:28:56;4.70;;;3.40;;
47844;SDS011;33605;48.822;8.796;2024-01-15T10:31:23;6.33;;;3.20;;
47844;SDS011;33605;48.822;8.796;2024-01-15T10:33:50;5.40;;;3.47;;
47844;SDS011;33605;48.822;8.796;2024-01-15T10:36:16;4.50;;;3.80;;
47844;SDS011;33605;48.822;8.796;2024-01-15T10:38:45;3.57;;;2.80;;
47844;SDS011;33605;48.822;8.796;2024-01-15T10:41:11;5.20;;;3.37;;
47844;SDS011;33605;48.822;8.796;2024-01-15T10:43:37;6.70;;;3.80;;
47844;SDS011;33605;48.822;8.796;2024-01-15T10:46:05;5.77;;;3.30;;
47844;SDS011;33605;48.822;8.796;2024-01-15T10:48:32;4.73;;;3.00;;
47844;SDS011;33605;48.822;8.796;2024-01-15T10:51:00;4.07;;;3.13;;
47844;SDS011;33605;48.822;8.796;2024-01-15T10:53:28;8.50;;;3.40;;
47844;SDS011;33605;48.822;8.796;2024-01-15T10:55:56;6.93;;;3.47;;
47844;SDS011;33605;48.822;8.796;2024-01-15T10:58:23;12.10;;;4.23;;
47844;SDS011;33605;48.822;8.796;2024-01-15T11:00:53;5.50;;;3.50;;
47844;SDS011;33605;48.822;8.796;2024-01-15T11:03:20;5.20;;;3.20;;
47844;SDS011;33605;48.822;8.796;2024-01-15T11:05:46;7.90;;;4.30;;
47844;SDS011;33605;48.822;8.796;2024-01-15T11:08:12;7.53;;;5.13;;
47844;SDS011;33605;48.822;8.796;2024-01-15T11:10:45;5.20;;;3.70;;
47844;SDS011;33605;48.822;8.796;2024-01-15T11:13:21;5.43;;;3.63;;
47844;SDS011;33605;48.822;8.796;2024-01-15T11:16:08;5.60;;;4.10;;
47844;SDS011;33605;48.822;8.796;2024-01-15T11:18:39;15.23;;;4.60;;
47844;SDS011;33605;48.822;8.796;2024-01-15T11:23:51;5.73;;;3.70;;
47844;SDS011;33605;48.822;8.796;2024-01-15T11:26:30;4.50;;;3.47;;
47844;SDS011;33605;48.822;8.796;2024-01-15T11:28:56;5.93;;;3.37;;
47844;SDS011;33605;48.822;8.796;2024-01-15T11:31:28;4.57;;;3.50;;
47844;SDS011;33605;48.822;8.796;2024-01-15T11:33:54;8.30;;;3.27;;
47844;SDS011;33605;48.822;8.796;2024-01-15T11:36:21;3.60;;;3.20;;
47844;SDS011;33605;48.822;8.796;2024-01-15T11:38:47;3.10;;;2.80;;
47844;SDS011;33605;48.822;8.796;2024-01-15T11:41:14;7.70;;;3.47;;
47844;SDS011;33605;48.822;8.796;2024-01-15T11:43:43;6.43;;;3.20;;
47844;SDS011;33605;48.822;8.796;2024-01-15T11:46:10;5.83;;;4.80;;
47844;SDS011;33605;48.822;8.796;2024-01-15T11:48:46;3.50;;;2.50;;
47844;SDS011;33605;48.822;8.796;2024-01-15T11:51:17;9.17;;;2.87;;
47844;SDS011;33605;48.822;8.796;2024-01-15T11:53:45;5.90;;;3.93;;
47844;SDS011;33605;48.822;8.796;2024-01-15T11:56:16;3.37;;;3.07;;
47844;SDS011;33605;48.822;8.796;2024-01-15T11:58:42;3.47;;;2.97;;
47844;SDS011;33605;48.822;8.796;2024-01-15T12:01:10;5.03;;;2.93;;
47844;SDS011;33605;48.822;8.796;2024-01-15T12:03:36;4.80;;;3.30;;
47844;SDS011;33605;48.822;8.796;2024-01-15T12:06:05;4.87;;;2.57;;
47844;SDS011;33605;48.822;8.796;2024-01-15T12:08:31;3.60;;;3.30;;
47844;SDS011;33605;48.822;8.796;2024-01-15T12:10:57;8.87;;;5.17;;
47844;SDS011;33605;48.822;8.796;2024-01-15T12:13:23;6.27;;;5.10;;
47844;SDS011;33605;48.822;8.796;2024-01-15T12:15:49;8.07;;;6.13;;
47844;SDS011;33605;48.822;8.796;2024-01-15T12:18:16;8.03;;;6.03;;
47844;SDS011;33605;48.822;8.796;2024-01-15T12:20:42;4.17;;;2.57;;
47844;SDS011;33605;48.822;8.796;2024-01-15T12:23:09;3.60;;;2.63;;
47844;SDS011;33605;48.822;8.796;2024-01-15T12:25:36;3.40;;;2.77;;
47844;SDS011;33605;48.822;8.796;2024-01-15T12:28:02;5.63;;;2.67;;
47844;SDS011;33605;48.822;8.796;2024-01-15T12:30:28;2.80;;;2.50;;
47844;SDS011;33605;48.822;8.796;2024-01-15T12:32:56;3.77;;;2.67;;
47844;SDS011;33605;48.822;8.796;2024-01-15T12:35:23;2.37;;;2.17;;
47844;SDS011;33605;48.822;8.796;2024-01-15T12:37:53;3.03;;;2.33;;
47844;SDS011;33605;48.822;8.796;2024-01-15T12:40:20;2.57;;;2.17;;
47844;SDS011;33605;48.822;8.796;2024-01-15T12:42:47;2.57;;;2.37;;
47844;SDS011;33605;48.822;8.796;2024-01-15T12:45:13;3.77;;;2.43;;
47844;SDS011;33605;48.822;8.796;2024-01-15T12:47:39;4.37;;;2.87;;
47844;SDS011;33605;48.822;8.796;2024-01-15T12:50:06;4.00;;;3.60;;
47844;SDS011;33605;48.822;8.796;2024-01-15T12:52:35;2.93;;;2.20;;
47844;SDS011;33605;48.822;8.796;2024-01-15T12:55:03;3.07;;;2.50;;
47844;SDS011;33605;48.822;8.796;2024-01-15T12:57:30;3.47;;;3.00;;
47844;SDS011;33605;48.822;8.796;2024-01-15T12:59:56;3.00;;;2.40;;
47844;SDS011;33605;48.822;8.796;2024-01-15T13:02:21;3.93;;;3.37;;
47844;SDS011;33605;48.822;8.796;2024-01-15T13:04:47;3.13;;;2.60;;
47844;SDS011;33605;48.822;8.796;2024-01-15T13:07:14;7.93;;;6.90;;
47844;SDS011;33605;48.822;8.796;2024-01-15T13:09:39;4.93;;;3.47;;
47844;SDS011;33605;48.822;8.796;2024-01-15T13:12:05;6.13;;;5.57;;
47844;SDS011;33605;48.822;8.796;2024-01-15T13:14:31;3.63;;;2.80;;
47844;SDS011;33605;48.822;8.796;2024-01-15T13:16:57;4.50;;;3.27;;
47844;SDS011;33605;48.822;8.796;2024-01-15T13:19:25;4.80;;;3.50;;
47844;SDS011;33605;48.822;8.796;2024-01-15T13:21:50;3.90;;;2.73;;
47844;SDS011;33605;48.822;8.796;2024-01-15T13:24:17;4.50;;;3.80;;
47844;SDS011;33605;48.822;8.796;2024-01-15T13:26:42;3.53;;;3.00;;
47844;SDS011;33605;48.822;8.796;2024-01-15T13:29:08;5.13;;;3.57;;
47844;SDS011;33605;48.822;8.796;2024-01-15T13:31:34;4.93;;;3.37;;
47844;SDS011;33605;48.822;8.796;2024-01-15T13:33:59;3.90;;;3.53;;
47844;SDS011;33605;48.822;8.796;2024-01-15T13:36:26;5.33;;;3.33;;
47844;SDS011;33605;48.822;8.796;2024-01-15T13:38:52;5.70;;;4.10;;
47844;SDS011;33605;48.822;8.796;2024-01-15T13:41:19;6.03;;;4.00;;
47844;SDS011;33605;48.822;8.796;2024-01-15T13:43:48;6.60;;;5.20;;
47844;SDS011;33605;48.822;8.796;2024-01-15T13:46:15;5.10;;;4.30;;
47844;SDS011;33605;48.822;8.796;2024-01-15T13:48:42;7.83;;;5.83;;
47844;SDS011;33605;48.822;8.796;2024-01-15T13:51:08;6.77;;;5.60;;
47844;SDS011;33605;48.822;8.796;2024-01-15T13:53:34;6.27;;;4.77;;
47844;SDS011;33605;48.822;8.796;2024-01-15T13:56:00;4.60;;;3.70;;
47844;SDS011;33605;48.822;8.796;2024-01-15T13:58:25;6.23;;;4.30;;
47844;SDS011;33605;48.822;8.796;2024-01-15T14:00:51;5.67;;;4.40;;
47844;SDS011;33605;48.822;8.796;2024-01-15T14:03:17;7.90;;;4.40;;
47844;SDS011;33605;48.822;8.796;2024-01-15T14:05:44;5.73;;;4.13;;
47844;SDS011;33605;48.822;8.796;2024-01-15T14:08:09;7.17;;;5.30;;
47844;SDS011;33605;48.822;8.796;2024-01-15T14:10:35;10.60;;;7.83;;
47844;SDS011;33605;48.822;8.796;2024-01-15T14:13:02;13.93;;;7.47;;
47844;SDS011;33605;48.822;8.796;2024-01-15T14:15:28;6.70;;;5.40;;
47844;SDS011;33605;48.822;8.796;2024-01-15T14:17:54;7.20;;;4.80;;
47844;SDS011;33605;48.822;8.796;2024-01-15T14:20:20;6.97;;;5.33;;
47844;SDS011;33605;48.822;8.796;2024-01-15T14:22:45;6.00;;;5.10;;
47844;SDS011;33605;48.822;8.796;2024-01-15T14:25:11;8.90;;;5.37;;
47844;SDS011;33605;48.822;8.796;2024-01-15T14:27:37;7.50;;;4.97;;
47844;SDS011;33605;48.822;8.796;2024-01-15T14:30:03;7.87;;;4.63;;
47844;SDS011;33605;48.822;8.796;2024-01-15T14:32:30;5.40;;;3.90;;
47844;SDS011;33605;48.822;8.796;2024-01-15T14:34:56;8.00;;;5.27;;
47844;SDS011;33605;48.822;8.796;2024-01-15T14:37:22;7.90;;;5.20;;